Time;durP1;ratioP1;P1;durP2;ratioP2;P2;SDS_P1;SDS_P2;PMS_P1;PMS_P2;Temp;Humidity;BMP_temperature;BMP_pressure;BME280_temperature;BME280_humidity;BME280_pressure;Samples;Min_cycle;Max_cycle;Signal;HPM_P1;HPM_P2
2022/06/19 15:28:47;;;;;;;26.67;16.77;;;54.70;16.40;;;42.98;14.20;94862.66;5050902;28;20160;-49
2022/06/19 15:31:19;;;;;;;25.83;20.08;;;54.90;14.90;;;43.16;14.18;94859.53;5008824;28;20029;-49
2022/06/19 15:34:21;;;;;;;26.08;20.40;;;55.80;14.00;;;43.37;14.20;94853.81;5024781;28;20021;-52
2022/06/19 15:36:49;;;;;;;32.63;20.83;;;56.60;13.50;;;42.51;14.99;94853.50;5007413;28;20056;-51
2022/06/19 15:39:43;;;;;;;28.02;21.77;;;57.10;12.80;;;43.63;13.88;94845.38;5025134;28;20064;-52
2022/06/19 15:42:29;;;;;;;24.25;21.42;;;57.60;12.80;;;43.83;14.05;94845.22;5005356;28;20361;-54
2022/06/19 15:45:20;;;;;;;28.75;23.27;;;58.30;12.60;;;43.55;13.81;94841.50;5021780;28;20048;-54
2022/06/19 15:48:18;;;;;;;25.42;22.75;;;58.50;12.20;;;43.50;13.97;94834.56;4979248;28;20025;-56
2022/06/19 15:50:53;;;;;;;31.25;23.77;;;58.70;12.00;;;43.76;13.48;94842.91;5007007;28;20047;-51
2022/06/19 15:53:37;;;;;;;29.23;21.23;;;58.80;11.80;;;43.99;13.21;94840.25;5024733;28;20448;-53
2022/06/19 15:56:26;;;;;;;28.33;20.02;;;58.90;11.60;;;43.73;13.26;94834.72;5004885;28;20103;-50
2022/06/19 15:59:41;;;;;;;32.08;22.55;;;59.00;11.40;;;43.51;13.50;94843.75;4991155;28;20025;-50
2022/06/19 16:02:26;;;;;;;30.80;21.17;;;58.90;11.40;;;43.84;14.04;94838.34;5023267;28;20021;-50
2022/06/19 16:05:01;;;;;;;25.55;22.90;;;58.90;11.50;;;43.92;13.58;94835.88;5023960;28;20025;-52
2022/06/19 16:07:42;;;;;;;29.85;20.27;;;58.80;11.30;;;43.75;13.72;94835.78;5001582;28;20045;-50
2022/06/19 16:10:18;;;;;;;29.05;21.45;;;58.80;11.30;;;43.40;14.47;94831.16;5003175;28;20013;-52
2022/06/19 16:13:04;;;;;;;29.90;23.23;;;58.70;11.30;;;42.71;14.06;94830.31;5019788;28;20484;-49
2022/06/19 16:15:38;;;;;;;28.92;17.58;;;58.60;11.10;;;42.69;14.59;94830.03;4992556;28;20064;-49
2022/06/19 16:18:38;;;;;;;24.73;19.73;;;58.40;11.20;;;42.94;14.53;94837.69;4990606;28;20048;-50
2022/06/19 16:21:13;;;;;;;30.27;18.65;;;58.20;11.20;;;42.68;14.44;94834.06;4990245;28;20049;-50
2022/06/19 16:23:58;;;;;;;29.70;20.73;;;58.20;11.20;;;42.62;14.45;94836.81;5008123;28;20451;-49
2022/06/19 16:26:38;;;;;;;25.95;19.48;;;58.00;11.80;;;42.46;14.48;94835.38;5001776;28;20099;-50
2022/06/19 16:29:17;;;;;;;27.77;16.88;;;57.90;11.30;;;42.81;14.28;94823.31;5015274;28;20536;-51
2022/06/19 16:31:57;;;;;;;24.98;18.10;;;57.70;11.30;;;42.97;14.65;94824.72;4969301;28;23379;-51
2022/06/19 16:44:02;;;;;;;27.23;18.27;;;57.70;11.30;;;42.61;14.66;94832.50;5003241;28;20137;-50
2022/06/19 16:46:54;;;;;;;25.10;16.35;;;57.40;11.40;;;42.59;14.65;94821.00;4993756;28;20041;-51
2022/06/19 16:49:41;;;;;;;24.73;16.95;;;57.30;11.40;;;42.52;14.72;94833.41;5009697;28;20018;-52
2022/06/19 16:52:22;;;;;;;27.13;16.00;;;57.20;11.40;;;42.66;15.12;94819.81;4993405;28;20369;-52
2022/06/19 16:55:25;;;;;;;26.05;14.65;;;57.10;11.50;;;42.73;14.90;94820.16;4993561;28;20457;-50
2022/06/19 16:58:30;;;;;;;25.48;15.85;;;57.10;11.60;;;42.44;14.77;94821.13;4993307;28;20072;-51
2022/06/19 17:01:58;;;;;;;28.95;16.30;;;56.90;11.60;;;41.90;15.42;94822.72;4990668;28;20037;-50
2022/06/19 17:04:28;;;;;;;27.13;14.88;;;56.70;11.50;;;41.60;15.24;94820.81;4936172;28;20034;-51
2022/06/19 17:07:06;;;;;;;21.48;13.68;;;56.50;11.50;;;41.21;15.54;94816.63;4976966;28;20092;-50
2022/06/19 17:09:48;;;;;;;21.90;13.60;;;56.30;11.50;;;41.65;14.94;94813.72;4992994;28;20438;-51
2022/06/19 17:12:36;;;;;;;22.42;12.38;;;55.90;12.00;;;41.53;15.68;94818.41;4993064;28;20396;-49
2022/06/19 17:15:08;;;;;;;22.55;11.65;;;55.40;11.50;;;40.78;16.78;94818.97;4993018;28;20021;-49
2022/06/19 17:17:49;;;;;;;24.58;10.13;;;53.80;12.00;;;39.96;17.32;94816.34;4987996;28;20053;-51
2022/06/19 17:20:36;;;;;;;21.95;9.02;;;51.70;12.90;;;39.30;18.23;94810.81;4970807;28;20032;-49
2022/06/19 17:23:28;;;;;;;19.27;8.77;;;49.80;13.60;;;38.82;18.52;94810.63;4993002;28;20096;-50
2022/06/19 17:26:19;;;;;;;16.92;8.20;;;47.80;14.50;;;38.59;19.13;94809.31;4987125;28;20428;-49
2022/06/19 17:28:52;;;;;;;34.47;9.52;;;46.30;15.30;;;38.39;19.70;94809.78;4993917;28;20087;-51
2022/06/19 17:31:32;;;;;;;21.70;8.93;;;45.30;16.10;;;37.94;19.83;94812.06;4992647;28;20032;-48
2022/06/19 17:34:22;;;;;;;23.80;8.63;;;44.40;16.70;;;37.53;22.95;94813.38;4992387;28;20111;-49
2022/06/19 17:36:57;;;;;;;27.55;9.70;;;43.60;17.70;;;37.21;21.81;94806.31;4977669;28;20099;-49
2022/06/19 17:39:39;;;;;;;25.63;8.02;;;42.90;18.80;;;36.96;22.08;94804.50;4992835;28;20536;-48
2022/06/19 17:42:24;;;;;;;25.15;8.70;;;42.20;18.80;;;36.59;25.38;94807.81;4991153;28;20036;-51
2022/06/19 17:45:19;;;;;;;20.60;8.25;;;41.60;19.60;;;36.24;24.39;94806.31;4991018;28;20112;-50
2022/06/19 17:47:46;;;;;;;29.13;9.00;;;41.10;20.20;;;35.86;23.27;94804.44;4974815;28;20038;-48
2022/06/19 17:50:42;;;;;;;27.88;9.15;;;40.80;20.10;;;35.65;23.63;94806.72;4989845;28;20045;-48
2022/06/19 17:53:43;;;;;;;23.55;8.25;;;40.40;21.10;;;35.40;24.01;94803.97;4988793;28;20022;-49
2022/06/19 17:56:25;;;;;;;22.67;8.18;;;40.00;20.80;;;35.23;28.46;94801.31;4985939;28;20018;-49
2022/06/19 18:00:16;;;;;;;28.95;8.77;;;39.60;21.80;;;34.42;30.58;94808.03;5002194;28;20076;-49
2022/06/19 18:03:02;;;;;;;25.90;7.95;;;39.20;22.10;;;34.06;29.69;94809.00;4952109;28;20030;-48
2022/06/19 18:05:55;;;;;;;22.10;7.75;;;38.80;23.00;;;33.70;30.25;94808.38;4936828;28;20030;-49
2022/06/19 18:08:37;;;;;;;34.03;7.93;;;38.40;23.90;;;33.33;30.73;94810.44;4942764;28;20082;-50
2022/06/19 18:11:38;;;;;;;27.88;8.35;;;38.00;24.20;;;33.03;32.38;94806.81;4952109;28;20046;-48
2022/06/19 18:14:17;;;;;;;28.23;8.77;;;37.60;24.70;;;32.66;33.34;94807.97;4936781;28;20521;-48
2022/06/19 18:19:42;;;;;;;23.88;8.38;;;37.00;25.50;;;32.35;33.64;94807.41;4938592;28;20046;-48
2022/06/19 18:22:11;;;;;;;29.73;8.70;;;36.60;26.20;;;32.16;34.59;94814.47;4935936;28;20049;-47
2022/06/19 18:24:40;;;;;;;23.23;7.95;;;36.40;26.60;;;32.05;34.82;94808.38;4951864;28;20038;-48
2022/06/19 18:27:18;;;;;;;27.85;9.30;;;36.20;27.10;;;31.91;35.09;94809.44;4951503;28;20434;-47
2022/06/19 18:30:03;;;;;;;17.75;7.78;;;35.90;27.50;;;31.74;36.46;94803.00;4951771;28;20085;-50
2022/06/19 18:32:41;;;;;;;27.48;8.55;;;35.80;28.00;;;31.60;37.29;94811.53;4949521;28;20049;-51
2022/06/19 18:35:19;;;;;;;23.40;7.43;;;35.60;28.50;;;31.46;37.20;94810.53;4975140;28;20120;-53
2022/06/19 18:37:52;;;;;;;28.63;8.57;;;35.50;28.80;;;31.36;38.23;94811.50;4991571;28;20444;-49
2022/06/19 18:40:24;;;;;;;23.20;8.10;;;35.20;29.30;;;31.13;39.11;94812.22;4992349;28;20022;-47
2022/06/19 18:42:50;;;;;;;25.15;7.80;;;35.00;29.70;;;31.00;39.03;94805.75;4992361;28;20040;-49
2022/06/19 18:45:25;;;;;;;25.38;8.18;;;34.90;29.90;;;30.84;40.28;94811.88;4992066;28;20471;-49
2022/06/19 18:47:52;;;;;;;21.23;8.73;;;34.70;30.50;;;30.77;40.47;94820.16;4991125;28;20030;-54
2022/06/19 18:50:27;;;;;;;24.73;8.13;;;34.50;31.00;;;30.62;41.56;94822.34;4991083;28;20042;-47
2022/06/19 18:52:59;;;;;;;18.55;8.23;;;34.30;31.80;;;30.45;42.17;94828.84;4991089;28;20029;-50
2022/06/19 18:55:41;;;;;;;;;;;34.20;32.20;;;30.34;42.59;94832.50;4992751;28;20345;-47
2022/06/19 18:58:20;;;;;;;22.58;8.05;;;33.90;31.30;;;30.24;41.83;94838.88;4957852;28;19905;-49
2022/06/19 19:00:56;;;;;;;16.45;8.77;;;33.80;32.50;;;30.18;42.55;94844.03;4990129;28;20057;-48
2022/06/19 19:03:24;;;;;;;23.25;8.95;;;33.60;33.20;;;30.12;42.32;94853.13;4992162;28;20049;-49
2022/06/19 19:05:53;;;;;;;21.35;8.35;;;33.50;33.40;;;29.98;43.61;94859.50;4992122;28;20108;-49
2022/06/19 19:08:45;;;;;;;22.98;8.73;;;33.40;34.00;;;29.87;43.38;94858.84;4990876;28;20038;-49
2022/06/19 19:11:22;;;;;;;22.63;8.37;;;33.20;34.40;;;29.76;44.43;94855.41;4991221;28;20049;-51
2022/06/19 19:13:48;;;;;;;30.83;8.75;;;33.10;34.90;;;29.69;43.70;94851.56;4990663;28;20021;-52
2022/06/19 19:16:28;;;;;;;15.65;8.80;;;33.10;34.90;;;29.63;44.09;94852.38;4987552;28;20026;-54
2022/06/19 19:18:57;;;;;;;17.25;7.90;;;32.90;35.40;;;29.50;44.58;94852.06;4988495;28;20052;-51
2022/06/19 19:21:27;;;;;;;25.50;8.57;;;32.80;35.60;;;29.43;46.25;94858.41;4990636;28;20029;-49
2022/06/19 19:23:55;;;;;;;23.27;7.80;;;32.80;36.20;;;29.25;45.32;94866.75;4990855;28;20037;-49
2022/06/19 19:26:30;;;;;;;21.30;9.13;;;32.70;36.40;;;29.08;45.26;94861.38;4990490;28;20022;-50
2022/06/19 19:29:08;;;;;;;23.13;8.93;;;32.50;36.50;;;29.01;46.67;94862.97;4990704;28;20033;-52
2022/06/19 19:31:44;;;;;;;29.85;12.52;;;32.50;36.90;;;28.86;47.06;94861.47;4990578;28;20084;-51
2022/06/19 19:34:13;;;;;;;25.15;8.05;;;32.40;37.20;;;28.72;47.33;94867.81;4990733;28;20025;-52
2022/06/19 19:36:42;;;;;;;22.60;8.82;;;32.20;37.30;;;28.57;46.65;94866.31;4956009;28;27642;-50
2022/06/19 19:39:16;;;;;;;19.65;7.95;;;32.10;37.60;;;28.38;46.50;94870.25;4963048;28;20030;-51
2022/06/19 19:41:45;;;;;;;19.83;8.20;;;31.90;37.70;;;28.27;45.98;94866.78;4986130;28;20145;-48
2022/06/19 19:44:13;;;;;;;25.15;9.40;;;31.70;37.60;;;28.20;47.21;94872.28;4986449;28;20026;-48
2022/06/19 19:46:55;;;;;;;24.13;8.82;;;31.50;37.90;;;28.00;45.32;94882.88;4986157;28;20436;-51
2022/06/19 19:49:28;;;;;;;31.20;9.85;;;31.40;38.10;;;27.96;48.17;94893.84;4987286;28;20023;-52
2022/06/19 19:52:03;;;;;;;21.65;8.38;;;31.30;38.30;;;27.93;47.63;94885.63;4973280;28;20034;-51
2022/06/19 19:54:33;;;;;;;18.67;8.45;;;31.20;38.60;;;27.83;46.93;94889.94;4989712;28;20028;-48
2022/06/19 19:56:59;;;;;;;22.92;8.27;;;31.10;38.70;;;27.73;46.07;94893.41;4989418;28;20029;-54
2022/06/19 19:59:26;;;;;;;28.10;9.18;;;30.90;38.50;;;27.63;46.99;94893.03;4990532;28;20021;-52
2022/06/19 20:01:54;;;;;;;21.05;9.20;;;30.90;38.70;;;27.56;48.27;94897.72;4990419;28;20017;-48
2022/06/19 20:04:20;;;;;;;14.68;7.97;;;30.70;39.00;;;27.38;46.94;94898.47;4990548;28;20025;-47
2022/06/19 20:12:19;;;;;;;23.75;9.18;;;30.50;39.50;;;27.10;48.90;94895.69;4989524;28;20440;-50
2022/06/19 20:14:46;;;;;;;25.42;9.02;;;30.30;39.60;;;26.98;49.00;94891.34;4992396;28;20362;-50
2022/06/19 20:17:13;;;;;;;25.13;9.27;;;30.20;39.90;;;26.94;49.02;94888.63;4976716;28;20017;-51
2022/06/19 20:19:42;;;;;;;18.55;8.63;;;30.10;40.00;;;26.93;49.64;94887.06;4993171;28;20041;-52
2022/06/19 20:22:40;;;;;;;20.75;8.60;;;30.10;40.50;;;26.80;49.34;94885.84;5009292;28;20028;-49
2022/06/19 20:25:34;;;;;;;20.80;9.48;;;30.00;40.60;;;26.68;49.32;94883.47;4981874;28;20034;-53
2022/06/19 20:28:35;;;;;;;19.33;7.90;;;29.80;40.60;;;26.53;49.48;94888.09;4988366;28;20041;-53
2022/06/19 20:31:02;;;;;;;17.65;8.13;;;29.70;40.90;;;26.43;49.74;94895.03;4991282;28;20127;-48
2022/06/19 20:33:36;;;;;;;23.45;9.00;;;29.60;40.70;;;26.35;50.10;94898.09;4990556;28;20140;-49
2022/06/19 20:36:14;;;;;;;22.17;8.63;;;29.50;41.20;;;26.30;50.25;94896.53;4991320;28;20033;-50
2022/06/19 20:38:49;;;;;;;21.38;8.73;;;29.40;41.40;;;26.23;49.85;94896.47;4992519;28;20057;-46
2022/06/19 20:44:11;;;;;;;28.73;8.40;;;29.30;41.60;;;25.95;51.10;94906.09;4992503;28;20076;-48
2022/06/19 20:46:38;;;;;;;19.80;8.05;;;29.10;41.80;;;25.81;51.63;94898.56;4979785;28;20045;-49
2022/06/19 20:49:14;;;;;;;24.95;8.43;;;29.00;41.80;;;25.79;51.79;94905.53;4972828;28;20022;-50
2022/06/19 20:51:40;;;;;;;16.38;8.23;;;28.90;42.10;;;25.68;52.22;94910.13;4975851;28;20030;-48
2022/06/19 20:54:08;;;;;;;19.15;8.77;;;28.90;42.30;;;25.58;52.54;94908.88;4991468;28;20432;-48
2022/06/19 20:56:34;;;;;;;25.05;8.68;;;28.80;42.50;;;25.50;51.24;94923.59;4990314;28;20032;-51
2022/06/19 20:59:06;;;;;;;18.67;8.13;;;28.70;42.50;;;25.45;51.57;94919.28;4992126;28;20033;-50
2022/06/19 21:01:35;;;;;;;21.07;8.70;;;28.60;42.60;;;25.41;52.75;94915.72;4999185;28;20025;-46
2022/06/19 21:04:01;;;;;;;19.95;8.63;;;28.60;42.90;;;25.24;52.73;94908.97;4965452;28;22733;-46
2022/06/19 21:06:27;;;;;;;21.88;8.30;;;28.50;42.90;;;25.15;51.86;94911.22;4992260;28;20025;-51
2022/06/19 21:08:55;;;;;;;20.20;7.40;;;28.40;42.90;;;25.10;52.51;94911.50;4992282;28;20025;-51
2022/06/19 21:11:23;;;;;;;15.38;8.00;;;28.30;42.90;;;25.02;53.75;94918.84;4993457;28;20091;-46
2022/06/19 21:13:53;;;;;;;20.83;8.43;;;28.20;43.20;;;24.97;53.90;94905.53;4993154;28;20108;-47
2022/06/19 21:16:25;;;;;;;20.60;9.77;;;28.20;43.60;;;24.81;54.56;94910.44;5000089;28;20021;-47
2022/06/19 21:18:52;;;;;;;19.40;8.07;;;28.10;43.90;;;24.72;54.58;94909.94;4993287;28;20034;-49
2022/06/19 21:21:36;;;;;;;23.48;7.78;;;28.00;43.80;;;24.59;55.67;94904.72;4990863;28;20029;-47
2022/06/19 21:24:15;;;;;;;18.85;8.65;;;27.90;44.20;;;24.55;55.17;94909.34;4988733;28;20105;-47
2022/06/19 21:26:41;;;;;;;19.08;8.23;;;27.80;44.40;;;24.43;56.46;94923.19;4992120;28;20050;-50
2022/06/19 21:29:23;;;;;;;14.02;7.60;;;27.70;44.50;;;24.30;56.65;94911.72;4992585;28;20028;-47
2022/06/19 21:31:55;;;;;;;23.10;8.68;;;27.70;45.00;;;24.26;56.76;94910.13;4992671;28;20517;-46
2022/06/19 21:34:21;;;;;;;15.43;8.33;;;27.50;45.00;;;24.21;56.82;94903.81;4987388;28;20026;-47
2022/06/19 21:36:57;;;;;;;13.48;7.80;;;27.50;45.10;;;24.10;57.79;94911.06;4991564;28;20107;-47
2022/06/19 21:39:29;;;;;;;13.95;7.50;;;27.40;45.40;;;24.12;57.04;94906.03;4972264;28;20026;-48
2022/06/19 21:41:56;;;;;;;20.48;7.95;;;27.40;45.60;;;24.12;56.84;94902.53;4983009;28;20026;-47
2022/06/19 21:44:23;;;;;;;17.92;7.90;;;27.30;45.70;;;24.11;56.47;94890.88;4991372;28;20014;-47
2022/06/19 21:46:50;;;;;;;13.60;7.05;;;27.30;45.80;;;24.14;53.35;94886.63;4992908;28;20029;-46
2022/06/19 21:49:16;;;;;;;16.33;7.35;;;27.30;45.70;;;24.43;52.53;94887.81;4975412;28;20428;-46
2022/06/19 21:51:51;;;;;;;14.88;7.50;;;27.30;45.30;;;24.63;51.66;94881.06;4990368;28;20112;-47
2022/06/19 21:54:21;;;;;;;20.73;7.07;;;27.40;45.10;;;24.72;51.34;94888.16;4992099;28;20029;-48
2022/06/19 21:56:48;;;;;;;15.30;6.85;;;27.50;44.80;;;24.73;51.71;94892.47;4991361;28;20232;-51
2022/06/19 21:59:24;;;;;;;11.25;6.18;;;27.50;44.60;;;24.71;50.22;94898.25;4991574;28;20100;-50
2022/06/19 22:01:54;;;;;;;20.33;6.93;;;27.60;44.20;;;24.76;51.19;94894.41;4973989;28;20026;-46
2022/06/19 22:04:27;;;;;;;19.83;7.13;;;27.60;44.10;;;24.77;50.34;94883.16;4991194;28;20029;-53
2022/06/19 22:06:55;;;;;;;14.65;6.57;;;27.60;44.00;;;24.81;49.83;94883.19;4975422;28;20129;-50
2022/06/19 22:12:15;;;;;;;16.67;6.82;;;27.70;43.80;;;24.82;50.45;94884.75;4983975;28;20171;-47
2022/06/19 22:12:19;;;;;;;15.93;6.63;;;27.70;44.40;;;24.75;51.59;94876.50;4992046;28;20037;-54
2022/06/19 22:14:45;;;;;;;14.90;6.70;;;27.70;43.60;;;24.61;51.83;94875.19;4991968;28;20022;-48
2022/06/19 22:17:12;;;;;;;12.48;6.50;;;27.70;43.70;;;24.52;52.20;94873.94;4992044;28;20065;-49
2022/06/19 22:19:59;;;;;;;20.35;7.55;;;27.60;43.80;;;24.39;53.00;94876.84;4974570;28;20030;-49
2022/06/19 22:22:27;;;;;;;13.48;7.20;;;27.50;44.10;;;24.27;53.80;94877.09;4990806;28;20104;-48
2022/06/19 22:24:57;;;;;;;16.25;6.93;;;27.50;44.20;;;24.14;53.82;94871.09;4974303;28;20112;-52
2022/06/19 22:27:40;;;;;;;16.20;6.90;;;27.40;44.40;;;24.02;55.13;94876.75;4991933;28;20393;-46
2022/06/19 22:30:28;;;;;;;25.13;7.05;;;27.30;44.80;;;23.90;55.39;94882.41;4979684;28;20029;-46
2022/06/19 22:32:58;;;;;;;16.17;7.15;;;27.20;45.60;;;23.79;55.36;94876.81;4991518;28;20083;-48
2022/06/19 22:35:28;;;;;;;19.17;7.03;;;27.10;45.10;;;23.68;54.94;94881.28;4974478;28;20013;-46
